»·PEaware :: N54102 KMCC-KSAC

N54102 :: KMCC-KSAC

FLIGHT INFORMATION

Flight Status: Arrived
Operator: Privately registered:
United States
More flights under this callsign
Pilot: Chris B. (23589)
Aircraft: CESSNA 172 SKYHAWK
(C172)
More flights by this aircraft type
Origin: KMCC McClellan
United States
Destination: KSAC Sacramento Executive
United States
More flights between these airports :: More routes between these airports
Route: +VISTO
File this flight plan on PilotEdge
Remarks: Check ride prep
Altitude:
(Current/Filed)
3,000ft
Speed:
(Current/Filed)
110kts
Departed: 14-Nov-20 04:38 PM
Arrived: 14-Nov-20 05:18 PM
Distance/Time
Traveled:
10nm/0:40
Distance/Time
To Go:
Arrived

Flight Plot

Page will automatically refresh every two minutes.

Flight plan parsing failed; only flown route is shown


Map Options




Map Legend


Flown Route
Filed Route
Departure Airport
Arrival Airport
Navaid (VOR, NDB)
Fix

Horizontal Profiles

Position Reports

Time Latitude Longitude Heading Altitude Ground
Speed
14-Nov-20 16:25 38.663067 -121.397116 180 74ft 0kts
14-Nov-20 16:26 38.663067 -121.397116 180 74ft 0kts
14-Nov-20 16:27 38.663067 -121.397116 180 74ft 0kts
14-Nov-20 16:28 38.663067 -121.397116 180 74ft 0kts
14-Nov-20 16:29 38.663067 -121.397116 180 74ft 0kts
14-Nov-20 16:30 38.662603 -121.396948 167 75ft 9kts
14-Nov-20 16:31 38.659416 -121.397868 180 75ft 19kts
14-Nov-20 16:32 38.654222 -121.398484 241 72ft 13kts
14-Nov-20 16:33 38.653784 -121.399492 241 70ft 0kts
14-Nov-20 16:34 38.653784 -121.399492 241 70ft 0kts
14-Nov-20 16:35 38.653784 -121.399492 241 70ft 0kts
14-Nov-20 16:36 38.653777 -121.399507 241 70ft 1kts
14-Nov-20 16:37 38.657880 -121.400639 359 70ft 64kts
14-Nov-20 16:38 38.676645 -121.405467 290 765ft 81kts
14-Nov-20 16:39 38.657497 -121.417474 189 1500ft 89kts
14-Nov-20 16:40 38.632362 -121.423965 193 2124ft 94kts
14-Nov-20 16:41 38.607094 -121.433108 202 2721ft 95kts
14-Nov-20 16:42 38.580082 -121.444257 197 3005ft 112kts
14-Nov-20 16:43 38.550969 -121.460902 225 3057ft 119kts
14-Nov-20 16:44 38.524157 -121.486999 218 3038ft 126kts
14-Nov-20 16:45 38.496683 -121.510651 214 2984ft 118kts
14-Nov-20 16:46 38.468741 -121.529964 213 3024ft 112kts
14-Nov-20 16:47 38.441622 -121.549651 210 3025ft 112kts
14-Nov-20 16:48 38.411426 -121.560855 196 3015ft 113kts
14-Nov-20 16:49 38.387293 -121.553744 66 2994ft 96kts
14-Nov-20 16:50 38.410402 -121.555459 349 2967ft 90kts
14-Nov-20 16:51 38.435093 -121.556146 9 2968ft 90kts
14-Nov-20 16:52 38.452993 -121.566503 257 3013ft 105kts
14-Nov-20 16:53 38.425849 -121.581820 196 3073ft 112kts
14-Nov-20 16:54 38.397607 -121.578906 106 3062ft 104kts
14-Nov-20 16:55 38.414490 -121.562799 7 3037ft 91kts
14-Nov-20 16:56 38.439194 -121.555708 10 3004ft 91kts
14-Nov-20 16:57 38.455388 -121.568455 252 2996ft 105kts
14-Nov-20 16:58 38.428657 -121.583031 192 3011ft 111kts
14-Nov-20 16:59 38.399930 -121.583472 119 3035ft 101kts
14-Nov-20 17:00 38.413314 -121.565340 11 3032ft 88kts
14-Nov-20 17:01 38.425105 -121.546775 130 3441ft 95kts
14-Nov-20 17:02 38.400219 -121.525305 143 3576ft 116kts
14-Nov-20 17:03 38.371394 -121.502982 144 3531ft 127kts
14-Nov-20 17:04 38.341091 -121.502263 232 3491ft 125kts
14-Nov-20 17:05 38.320166 -121.536943 236 3527ft 123kts
14-Nov-20 17:06 38.300076 -121.572007 249 3532ft 122kts
14-Nov-20 17:07 38.314874 -121.598441 346 3513ft 100kts
14-Nov-20 17:08 38.341016 -121.610099 334 3088ft 99kts
14-Nov-20 17:09 38.365832 -121.613125 22 2535ft 93kts
14-Nov-20 17:10 38.389511 -121.597192 31 1917ft 100kts
14-Nov-20 17:11 38.409858 -121.578987 28 1692ft 86kts
14-Nov-20 17:12 38.429926 -121.562977 36 1640ft 87kts
14-Nov-20 17:13 38.449930 -121.546089 28 1388ft 89kts
14-Nov-20 17:14 38.470650 -121.529199 27 958ft 88kts
14-Nov-20 17:15 38.491214 -121.512303 26 387ft 87kts
14-Nov-20 17:16 38.510785 -121.496014 31 22ft 65kts
14-Nov-20 17:17 38.518410 -121.489824 35 23ft 26kts
14-Nov-20 17:18 38.519169 -121.490395 280 24ft 0kts
14-Nov-20 17:19 38.519532 -121.492757 281 23ft 22kts
14-Nov-20 17:20 38.515869 -121.496852 179 22ft 25kts

Navigation Log

Ident Type
Flight plan parsing failed, navigation log unavailable